Hovedside
METAR-TAF:

METAR-TAF

Lufthavner :

Ålesund lufthavn. Vigra

Ålesund, Norge

breddegrad: 62-34N, lengdegrad: 006-07E, høyde over havet: 2 m

Gjeldene værobservasjon

Denne rapporten ble laget for 34 minutter siden, klokken 04:20 UTC
Vind 6 kt fra Sør-sørvest
Temperatur 10°C
Luftfuktighet 71%
Trykk 1014 hPa
Sikt 10 km eller mer
Få skyer i en høyde av 4100 ft

METAR: ENAL 160420Z 21006KT 9999 FEW041 10/05 Q1014

Tid: 06:54 (04:54 UTC)

Varsel

Denne rapporten ble laget for 2 timer og 54 minutter siden, klokken 02:00 UTC
Varsel gyldig fra 16. klokken 03 UTC til 16. klokken 12 UTC
Vind 8 kt fra Sør-sørøst
Sikt 10 km eller mer
Spredte skyer i en høyde av 4000 ft

TAF: ENAL 160200Z 1603/1612 16008KT 9999 SCT040

Værobservasjoner og værvarsel for over 4000 flyplasser (METAR- og TAF-rapporter).

Tilgjengelige stasjoner er representert av de røde og gule prikkene på kartet.

Hold musepekeren over prikken for å se navnet på stasjonen.

Klikk så for å se værobservasjoner og -varsler.

For å forandre kartet kan du klikke på den grønne knappen med svart kryss for å zoome inn, på den grønne knappen med strek for å zoome ut, eller på de grønne pilene for å se tilstøtende kart.


METAR-TAF: